sensor_id;sensor_type;location;lat;lon;timestamp;P1;durP1;ratioP1;P2;durP2;ratioP2
7613;SDS011;3848;42.016;23.098;2022-09-09T00:02:11;9.33;;;7.80;;
7613;SDS011;3848;42.016;23.098;2022-09-09T00:04:45;13.93;;;8.57;;
7613;SDS011;3848;42.016;23.098;2022-09-09T00:07:25;10.37;;;8.27;;
7613;SDS011;3848;42.016;23.098;2022-09-09T00:10:06;9.50;;;7.70;;
7613;SDS011;3848;42.016;23.098;2022-09-09T00:12:42;12.20;;;7.83;;
7613;SDS011;3848;42.016;23.098;2022-09-09T00:15:18;9.23;;;8.20;;
7613;SDS011;3848;42.016;23.098;2022-09-09T00:17:47;9.27;;;8.13;;
7613;SDS011;3848;42.016;23.098;2022-09-09T00:20:20;11.37;;;8.60;;
7613;SDS011;3848;42.016;23.098;2022-09-09T00:22:55;8.67;;;7.77;;
7613;SDS011;3848;42.016;23.098;2022-09-09T00:25:28;8.40;;;7.10;;
7613;SDS011;3848;42.016;23.098;2022-09-09T00:27:59;12.40;;;8.33;;
7613;SDS011;3848;42.016;23.098;2022-09-09T00:30:30;8.40;;;7.47;;
7613;SDS011;3848;42.016;23.098;2022-09-09T00:33:00;10.07;;;8.40;;
7613;SDS011;3848;42.016;23.098;2022-09-09T00:35:37;12.83;;;8.13;;
7613;SDS011;3848;42.016;23.098;2022-09-09T00:38:14;14.00;;;7.83;;
7613;SDS011;3848;42.016;23.098;2022-09-09T00:40:45;10.37;;;7.80;;
7613;SDS011;3848;42.016;23.098;2022-09-09T00:46:09;7.77;;;6.97;;
7613;SDS011;3848;42.016;23.098;2022-09-09T00:48:50;9.43;;;7.73;;
7613;SDS011;3848;42.016;23.098;2022-09-09T00:51:25;11.80;;;7.77;;
7613;SDS011;3848;42.016;23.098;2022-09-09T00:54:07;8.23;;;7.40;;
7613;SDS011;3848;42.016;23.098;2022-09-09T00:56:45;8.20;;;7.40;;
7613;SDS011;3848;42.016;23.098;2022-09-09T00:59:22;8.73;;;7.30;;
7613;SDS011;3848;42.016;23.098;2022-09-09T01:01:56;8.73;;;7.43;;
7613;SDS011;3848;42.016;23.098;2022-09-09T01:04:24;10.60;;;7.70;;
7613;SDS011;3848;42.016;23.098;2022-09-09T01:06:57;9.43;;;7.43;;
7613;SDS011;3848;42.016;23.098;2022-09-09T01:09:37;10.47;;;7.60;;
7613;SDS011;3848;42.016;23.098;2022-09-09T01:12:14;8.73;;;7.73;;
7613;SDS011;3848;42.016;23.098;2022-09-09T01:14:42;10.83;;;7.90;;
7613;SDS011;3848;42.016;23.098;2022-09-09T01:17:15;8.90;;;7.80;;
7613;SDS011;3848;42.016;23.098;2022-09-09T01:19:51;12.57;;;7.27;;
7613;SDS011;3848;42.016;23.098;2022-09-09T01:22:29;11.00;;;7.47;;
7613;SDS011;3848;42.016;23.098;2022-09-09T01:25:21;9.17;;;8.17;;
7613;SDS011;3848;42.016;23.098;2022-09-09T01:27:56;11.07;;;8.00;;
7613;SDS011;3848;42.016;23.098;2022-09-09T01:30:25;11.70;;;7.50;;
7613;SDS011;3848;42.016;23.098;2022-09-09T01:32:54;11.03;;;7.87;;
7613;SDS011;3848;42.016;23.098;2022-09-09T01:35:29;9.47;;;7.93;;
7613;SDS011;3848;42.016;23.098;2022-09-09T01:38:05;9.43;;;7.07;;
7613;SDS011;3848;42.016;23.098;2022-09-09T01:40:33;12.17;;;8.10;;
7613;SDS011;3848;42.016;23.098;2022-09-09T01:43:01;9.80;;;7.60;;
7613;SDS011;3848;42.016;23.098;2022-09-09T01:45:28;13.10;;;8.20;;
7613;SDS011;3848;42.016;23.098;2022-09-09T01:47:55;11.93;;;7.40;;
7613;SDS011;3848;42.016;23.098;2022-09-09T01:50:23;20.87;;;8.37;;
7613;SDS011;3848;42.016;23.098;2022-09-09T01:52:50;12.47;;;7.70;;
7613;SDS011;3848;42.016;23.098;2022-09-09T01:55:22;9.43;;;8.13;;
7613;SDS011;3848;42.016;23.098;2022-09-09T01:57:56;11.87;;;7.67;;
7613;SDS011;3848;42.016;23.098;2022-09-09T02:00:44;12.63;;;7.80;;
7613;SDS011;3848;42.016;23.098;2022-09-09T02:03:21;11.13;;;7.90;;
7613;SDS011;3848;42.016;23.098;2022-09-09T02:05:54;9.93;;;7.27;;
7613;SDS011;3848;42.016;23.098;2022-09-09T02:08:28;13.57;;;8.20;;
7613;SDS011;3848;42.016;23.098;2022-09-09T02:11:04;16.43;;;8.30;;
7613;SDS011;3848;42.016;23.098;2022-09-09T02:13:33;10.97;;;7.80;;
7613;SDS011;3848;42.016;23.098;2022-09-09T02:16:04;9.93;;;8.20;;
7613;SDS011;3848;42.016;23.098;2022-09-09T02:18:35;8.67;;;7.43;;
7613;SDS011;3848;42.016;23.098;2022-09-09T02:21:07;10.80;;;7.60;;
7613;SDS011;3848;42.016;23.098;2022-09-09T02:23:36;12.33;;;8.10;;
7613;SDS011;3848;42.016;23.098;2022-09-09T02:26:06;10.17;;;7.87;;
7613;SDS011;3848;42.016;23.098;2022-09-09T02:28:36;10.37;;;7.23;;
7613;SDS011;3848;42.016;23.098;2022-09-09T02:31:06;11.07;;;7.80;;
7613;SDS011;3848;42.016;23.098;2022-09-09T02:33:33;9.60;;;7.67;;
7613;SDS011;3848;42.016;23.098;2022-09-09T02:36:06;8.33;;;7.43;;
7613;SDS011;3848;42.016;23.098;2022-09-09T02:38:36;10.10;;;8.20;;
7613;SDS011;3848;42.016;23.098;2022-09-09T02:41:08;8.77;;;7.87;;
7613;SDS011;3848;42.016;23.098;2022-09-09T02:43:35;10.00;;;8.07;;
7613;SDS011;3848;42.016;23.098;2022-09-09T02:46:04;17.30;;;9.00;;
7613;SDS011;3848;42.016;23.098;2022-09-09T02:48:47;14.47;;;9.00;;
7613;SDS011;3848;42.016;23.098;2022-09-09T02:51:23;11.20;;;8.80;;
7613;SDS011;3848;42.016;23.098;2022-09-09T02:53:59;10.40;;;9.40;;
7613;SDS011;3848;42.016;23.098;2022-09-09T02:56:39;11.97;;;9.50;;
7613;SDS011;3848;42.016;23.098;2022-09-09T02:59:12;10.97;;;8.27;;
7613;SDS011;3848;42.016;23.098;2022-09-09T03:01:40;11.07;;;8.97;;
7613;SDS011;3848;42.016;23.098;2022-09-09T03:04:07;12.07;;;8.17;;
7613;SDS011;3848;42.016;23.098;2022-09-09T03:06:34;15.07;;;8.57;;
7613;SDS011;3848;42.016;23.098;2022-09-09T03:09:01;9.57;;;7.93;;
7613;SDS011;3848;42.016;23.098;2022-09-09T03:11:28;12.40;;;7.77;;
7613;SDS011;3848;42.016;23.098;2022-09-09T03:13:54;12.13;;;7.60;;
7613;SDS011;3848;42.016;23.098;2022-09-09T03:16:22;8.47;;;7.50;;
7613;SDS011;3848;42.016;23.098;2022-09-09T03:18:50;9.67;;;7.83;;
7613;SDS011;3848;42.016;23.098;2022-09-09T03:21:17;9.60;;;8.03;;
7613;SDS011;3848;42.016;23.098;2022-09-09T03:23:44;10.10;;;7.47;;
7613;SDS011;3848;42.016;23.098;2022-09-09T03:26:11;9.40;;;7.40;;
7613;SDS011;3848;42.016;23.098;2022-09-09T03:28:40;12.33;;;8.30;;
7613;SDS011;3848;42.016;23.098;2022-09-09T03:31:07;10.67;;;8.23;;
7613;SDS011;3848;42.016;23.098;2022-09-09T03:33:35;9.77;;;7.97;;
7613;SDS011;3848;42.016;23.098;2022-09-09T03:36:03;11.60;;;8.50;;
7613;SDS011;3848;42.016;23.098;2022-09-09T03:38:32;8.03;;;7.20;;
7613;SDS011;3848;42.016;23.098;2022-09-09T03:40:59;8.70;;;7.80;;
7613;SDS011;3848;42.016;23.098;2022-09-09T03:43:27;16.17;;;8.50;;
7613;SDS011;3848;42.016;23.098;2022-09-09T03:45:55;16.33;;;8.50;;
7613;SDS011;3848;42.016;23.098;2022-09-09T03:48:22;11.13;;;8.20;;
7613;SDS011;3848;42.016;23.098;2022-09-09T03:50:50;16.43;;;8.60;;
7613;SDS011;3848;42.016;23.098;2022-09-09T03:53:20;11.17;;;7.83;;
7613;SDS011;3848;42.016;23.098;2022-09-09T03:55:50;13.70;;;9.27;;
7613;SDS011;3848;42.016;23.098;2022-09-09T03:58:20;13.37;;;9.10;;
7613;SDS011;3848;42.016;23.098;2022-09-09T04:00:58;14.53;;;10.07;;
7613;SDS011;3848;42.016;23.098;2022-09-09T04:03:27;12.20;;;9.83;;
7613;SDS011;3848;42.016;23.098;2022-09-09T04:05:55;15.63;;;9.87;;
7613;SDS011;3848;42.016;23.098;2022-09-09T04:08:25;16.20;;;10.80;;
7613;SDS011;3848;42.016;23.098;2022-09-09T04:10:51;19.07;;;10.40;;
7613;SDS011;3848;42.016;23.098;2022-09-09T04:13:22;15.37;;;11.03;;
7613;SDS011;3848;42.016;23.098;2022-09-09T04:15:50;14.10;;;10.57;;
7613;SDS011;3848;42.016;23.098;2022-09-09T04:18:18;12.10;;;10.73;;
7613;SDS011;3848;42.016;23.098;2022-09-09T04:20:45;14.20;;;10.80;;
7613;SDS011;3848;42.016;23.098;2022-09-09T04:23:13;13.40;;;11.03;;
7613;SDS011;3848;42.016;23.098;2022-09-09T04:25:44;14.57;;;11.20;;
7613;SDS011;3848;42.016;23.098;2022-09-09T04:28:12;12.83;;;11.47;;
7613;SDS011;3848;42.016;23.098;2022-09-09T04:30:39;25.23;;;11.07;;
7613;SDS011;3848;42.016;23.098;2022-09-09T04:33:06;19.10;;;12.07;;
7613;SDS011;3848;42.016;23.098;2022-09-09T04:35:33;16.80;;;11.57;;
7613;SDS011;3848;42.016;23.098;2022-09-09T04:38:00;17.77;;;11.87;;
7613;SDS011;3848;42.016;23.098;2022-09-09T04:40:28;18.03;;;11.27;;
7613;SDS011;3848;42.016;23.098;2022-09-09T04:42:57;16.50;;;11.57;;
7613;SDS011;3848;42.016;23.098;2022-09-09T04:45:24;17.47;;;12.30;;
7613;SDS011;3848;42.016;23.098;2022-09-09T04:47:51;22.20;;;11.37;;
7613;SDS011;3848;42.016;23.098;2022-09-09T04:50:18;20.90;;;11.80;;
7613;SDS011;3848;42.016;23.098;2022-09-09T04:52:45;24.50;;;13.17;;
7613;SDS011;3848;42.016;23.098;2022-09-09T04:55:12;21.40;;;9.80;;
7613;SDS011;3848;42.016;23.098;2022-09-09T04:57:39;11.97;;;9.07;;
7613;SDS011;3848;42.016;23.098;2022-09-09T05:00:08;24.23;;;10.30;;
7613;SDS011;3848;42.016;23.098;2022-09-09T05:02:38;21.57;;;12.40;;
7613;SDS011;3848;42.016;23.098;2022-09-09T05:05:07;17.13;;;10.37;;
7613;SDS011;3848;42.016;23.098;2022-09-09T05:07:36;16.17;;;10.57;;
7613;SDS011;3848;42.016;23.098;2022-09-09T05:10:03;16.00;;;11.03;;
7613;SDS011;3848;42.016;23.098;2022-09-09T05:12:31;15.80;;;11.67;;
7613;SDS011;3848;42.016;23.098;2022-09-09T05:14:58;15.83;;;10.90;;
7613;SDS011;3848;42.016;23.098;2022-09-09T05:17:26;18.53;;;13.23;;
7613;SDS011;3848;42.016;23.098;2022-09-09T05:19:54;20.17;;;11.77;;
7613;SDS011;3848;42.016;23.098;2022-09-09T05:22:20;17.37;;;11.90;;
7613;SDS011;3848;42.016;23.098;2022-09-09T05:24:48;18.27;;;12.07;;
7613;SDS011;3848;42.016;23.098;2022-09-09T05:27:16;24.20;;;12.33;;
7613;SDS011;3848;42.016;23.098;2022-09-09T05:29:43;15.03;;;12.00;;
7613;SDS011;3848;42.016;23.098;2022-09-09T05:32:10;20.00;;;12.70;;
7613;SDS011;3848;42.016;23.098;2022-09-09T05:34:38;21.40;;;12.80;;
7613;SDS011;3848;42.016;23.098;2022-09-09T05:37:05;25.47;;;13.60;;
7613;SDS011;3848;42.016;23.098;2022-09-09T05:39:32;20.93;;;13.30;;
7613;SDS011;3848;42.016;23.098;2022-09-09T05:42:01;21.27;;;13.63;;
7613;SDS011;3848;42.016;23.098;2022-09-09T05:44:30;25.07;;;14.67;;
7613;SDS011;3848;42.016;23.098;2022-09-09T05:46:57;21.83;;;13.17;;
7613;SDS011;3848;42.016;23.098;2022-09-09T05:49:24;18.43;;;12.80;;
7613;SDS011;3848;42.016;23.098;2022-09-09T05:51:52;20.63;;;14.50;;
7613;SDS011;3848;42.016;23.098;2022-09-09T05:54:19;15.63;;;12.97;;
7613;SDS011;3848;42.016;23.098;2022-09-09T05:56:46;18.27;;;12.70;;
7613;SDS011;3848;42.016;23.098;2022-09-09T05:59:15;18.43;;;13.70;;
7613;SDS011;3848;42.016;23.098;2022-09-09T06:01:43;19.00;;;12.93;;
7613;SDS011;3848;42.016;23.098;2022-09-09T06:04:10;19.20;;;13.17;;
7613;SDS011;3848;42.016;23.098;2022-09-09T06:06:37;16.73;;;13.30;;
7613;SDS011;3848;42.016;23.098;2022-09-09T06:09:06;18.97;;;13.07;;
7613;SDS011;3848;42.016;23.098;2022-09-09T06:11:36;23.43;;;13.53;;
7613;SDS011;3848;42.016;23.098;2022-09-09T06:14:03;25.53;;;13.57;;
7613;SDS011;3848;42.016;23.098;2022-09-09T06:16:31;16.40;;;14.53;;
7613;SDS011;3848;42.016;23.098;2022-09-09T06:19:00;19.73;;;12.37;;
7613;SDS011;3848;42.016;23.098;2022-09-09T06:21:28;15.30;;;12.03;;
7613;SDS011;3848;42.016;23.098;2022-09-09T06:23:56;22.70;;;12.67;;
7613;SDS011;3848;42.016;23.098;2022-09-09T06:26:26;19.43;;;12.57;;
7613;SDS011;3848;42.016;23.098;2022-09-09T06:28:54;17.00;;;11.03;;
7613;SDS011;3848;42.016;23.098;2022-09-09T06:31:23;16.43;;;12.30;;
7613;SDS011;3848;42.016;23.098;2022-09-09T06:33:52;16.07;;;11.40;;
7613;SDS011;3848;42.016;23.098;2022-09-09T06:36:20;11.97;;;9.30;;
7613;SDS011;3848;42.016;23.098;2022-09-09T06:38:49;13.50;;;9.37;;
7613;SDS011;3848;42.016;23.098;2022-09-09T06:41:17;14.80;;;10.37;;
7613;SDS011;3848;42.016;23.098;2022-09-09T06:43:47;26.80;;;11.87;;
7613;SDS011;3848;42.016;23.098;2022-09-09T06:46:14;19.03;;;15.03;;
7613;SDS011;3848;42.016;23.098;2022-09-09T06:48:43;15.33;;;11.13;;
7613;SDS011;3848;42.016;23.098;2022-09-09T06:51:11;28.13;;;18.13;;
7613;SDS011;3848;42.016;23.098;2022-09-09T06:53:39;11.60;;;9.00;;
7613;SDS011;3848;42.016;23.098;2022-09-09T06:56:17;15.27;;;9.17;;
7613;SDS011;3848;42.016;23.098;2022-09-09T06:58:48;13.97;;;9.50;;
7613;SDS011;3848;42.016;23.098;2022-09-09T07:01:16;16.43;;;9.20;;
7613;SDS011;3848;42.016;23.098;2022-09-09T07:03:45;12.57;;;8.47;;
7613;SDS011;3848;42.016;23.098;2022-09-09T07:06:14;12.47;;;8.70;;
7613;SDS011;3848;42.016;23.098;2022-09-09T07:08:43;11.57;;;8.63;;
7613;SDS011;3848;42.016;23.098;2022-09-09T07:11:10;12.13;;;8.60;;
7613;SDS011;3848;42.016;23.098;2022-09-09T07:13:37;12.00;;;8.77;;
7613;SDS011;3848;42.016;23.098;2022-09-09T07:16:06;13.17;;;8.73;;
7613;SDS011;3848;42.016;23.098;2022-09-09T07:18:34;14.80;;;8.60;;
7613;SDS011;3848;42.016;23.098;2022-09-09T07:21:01;13.37;;;8.97;;
7613;SDS011;3848;42.016;23.098;2022-09-09T07:23:29;16.13;;;8.53;;
7613;SDS011;3848;42.016;23.098;2022-09-09T07:25:56;12.17;;;8.10;;
7613;SDS011;3848;42.016;23.098;2022-09-09T07:28:23;14.90;;;9.20;;
7613;SDS011;3848;42.016;23.098;2022-09-09T07:30:54;13.83;;;8.13;;
7613;SDS011;3848;42.016;23.098;2022-09-09T07:33:23;12.03;;;8.47;;
7613;SDS011;3848;42.016;23.098;2022-09-09T07:35:51;10.90;;;9.13;;
7613;SDS011;3848;42.016;23.098;2022-09-09T07:38:18;12.07;;;9.17;;
7613;SDS011;3848;42.016;23.098;2022-09-09T07:40:46;17.47;;;9.23;;
7613;SDS011;3848;42.016;23.098;2022-09-09T07:43:13;23.97;;;16.27;;
7613;SDS011;3848;42.016;23.098;2022-09-09T07:45:43;19.13;;;9.10;;
7613;SDS011;3848;42.016;23.098;2022-09-09T07:48:10;21.97;;;9.43;;
7613;SDS011;3848;42.016;23.098;2022-09-09T07:50:39;12.93;;;8.10;;
7613;SDS011;3848;42.016;23.098;2022-09-09T07:53:05;14.77;;;7.77;;
7613;SDS011;3848;42.016;23.098;2022-09-09T07:55:32;14.33;;;8.97;;
7613;SDS011;3848;42.016;23.098;2022-09-09T07:57:59;14.63;;;7.83;;
7613;SDS011;3848;42.016;23.098;2022-09-09T08:00:26;14.20;;;8.53;;
7613;SDS011;3848;42.016;23.098;2022-09-09T08:02:53;12.90;;;8.73;;
7613;SDS011;3848;42.016;23.098;2022-09-09T08:05:20;11.57;;;7.77;;
7613;SDS011;3848;42.016;23.098;2022-09-09T08:07:49;9.90;;;7.30;;
7613;SDS011;3848;42.016;23.098;2022-09-09T08:10:16;14.83;;;8.27;;
7613;SDS011;3848;42.016;23.098;2022-09-09T08:12:43;16.77;;;7.90;;
7613;SDS011;3848;42.016;23.098;2022-09-09T08:15:10;10.87;;;7.50;;
7613;SDS011;3848;42.016;23.098;2022-09-09T08:17:37;13.63;;;7.00;;
7613;SDS011;3848;42.016;23.098;2022-09-09T08:20:05;17.33;;;10.00;;
7613;SDS011;3848;42.016;23.098;2022-09-09T08:22:32;9.97;;;6.97;;
7613;SDS011;3848;42.016;23.098;2022-09-09T08:25:04;14.90;;;5.90;;
7613;SDS011;3848;42.016;23.098;2022-09-09T08:27:33;16.20;;;11.90;;
7613;SDS011;3848;42.016;23.098;2022-09-09T08:30:00;8.70;;;5.70;;
7613;SDS011;3848;42.016;23.098;2022-09-09T08:32:27;7.60;;;5.17;;
7613;SDS011;3848;42.016;23.098;2022-09-09T08:34:54;8.33;;;5.63;;
7613;SDS011;3848;42.016;23.098;2022-09-09T08:37:21;8.30;;;5.37;;
7613;SDS011;3848;42.016;23.098;2022-09-09T08:39:48;10.07;;;5.73;;
7613;SDS011;3848;42.016;23.098;2022-09-09T08:42:25;7.37;;;5.20;;
7613;SDS011;3848;42.016;23.098;2022-09-09T08:45:09;8.47;;;4.83;;
7613;SDS011;3848;42.016;23.098;2022-09-09T08:47:47;5.13;;;4.63;;
7613;SDS011;3848;42.016;23.098;2022-09-09T08:50:23;8.73;;;5.20;;
7613;SDS011;3848;42.016;23.098;2022-09-09T08:52:55;5.67;;;4.40;;
7613;SDS011;3848;42.016;23.098;2022-09-09T08:55:29;6.87;;;4.30;;
7613;SDS011;3848;42.016;23.098;2022-09-09T08:58:06;7.43;;;4.93;;
7613;SDS011;3848;42.016;23.098;2022-09-09T09:00:40;6.13;;;4.87;;
7613;SDS011;3848;42.016;23.098;2022-09-09T09:03:15;5.80;;;5.20;;
7613;SDS011;3848;42.016;23.098;2022-09-09T09:05:51;7.87;;;6.00;;
7613;SDS011;3848;42.016;23.098;2022-09-09T09:08:29;12.93;;;4.90;;
7613;SDS011;3848;42.016;23.098;2022-09-09T09:11:04;7.23;;;5.17;;
7613;SDS011;3848;42.016;23.098;2022-09-09T09:13:34;8.97;;;4.83;;
7613;SDS011;3848;42.016;23.098;2022-09-09T09:16:06;5.60;;;5.00;;
7613;SDS011;3848;42.016;23.098;2022-09-09T09:18:40;6.83;;;4.43;;
7613;SDS011;3848;42.016;23.098;2022-09-09T09:21:08;5.37;;;4.87;;
7613;SDS011;3848;42.016;23.098;2022-09-09T09:23:41;9.37;;;6.47;;
7613;SDS011;3848;42.016;23.098;2022-09-09T09:26:11;4.90;;;4.30;;
7613;SDS011;3848;42.016;23.098;2022-09-09T09:28:40;9.33;;;5.23;;
7613;SDS011;3848;42.016;23.098;2022-09-09T09:31:09;7.33;;;5.27;;
7613;SDS011;3848;42.016;23.098;2022-09-09T09:33:38;7.73;;;4.80;;
7613;SDS011;3848;42.016;23.098;2022-09-09T09:36:13;6.03;;;5.00;;
7613;SDS011;3848;42.016;23.098;2022-09-09T09:38:51;6.43;;;5.10;;
7613;SDS011;3848;42.016;23.098;2022-09-09T09:41:33;5.70;;;4.33;;
7613;SDS011;3848;42.016;23.098;2022-09-09T09:44:04;7.67;;;4.83;;
7613;SDS011;3848;42.016;23.098;2022-09-09T09:46:32;9.17;;;4.80;;
7613;SDS011;3848;42.016;23.098;2022-09-09T09:48:59;11.67;;;5.00;;
7613;SDS011;3848;42.016;23.098;2022-09-09T09:51:28;5.60;;;4.97;;
7613;SDS011;3848;42.016;23.098;2022-09-09T09:54:06;9.40;;;4.87;;
7613;SDS011;3848;42.016;23.098;2022-09-09T09:56:40;9.03;;;4.97;;
7613;SDS011;3848;42.016;23.098;2022-09-09T09:59:20;10.53;;;5.07;;
7613;SDS011;3848;42.016;23.098;2022-09-09T10:01:49;4.70;;;4.20;;
7613;SDS011;3848;42.016;23.098;2022-09-09T10:04:16;7.50;;;4.80;;
7613;SDS011;3848;42.016;23.098;2022-09-09T10:06:47;6.83;;;4.60;;
7613;SDS011;3848;42.016;23.098;2022-09-09T10:09:23;5.97;;;4.90;;
7613;SDS011;3848;42.016;23.098;2022-09-09T10:11:54;7.00;;;5.03;;
7613;SDS011;3848;42.016;23.098;2022-09-09T10:14:28;5.80;;;4.23;;
7613;SDS011;3848;42.016;23.098;2022-09-09T10:17:04;7.67;;;5.00;;
7613;SDS011;3848;42.016;23.098;2022-09-09T10:19:39;8.83;;;4.97;;
7613;SDS011;3848;42.016;23.098;2022-09-09T10:22:20;7.27;;;5.10;;
7613;SDS011;3848;42.016;23.098;2022-09-09T10:27:47;7.47;;;5.40;;
7613;SDS011;3848;42.016;23.098;2022-09-09T10:30:28;7.53;;;5.27;;
7613;SDS011;3848;42.016;23.098;2022-09-09T10:33:08;9.43;;;5.00;;
7613;SDS011;3848;42.016;23.098;2022-09-09T10:35:42;8.80;;;5.43;;
7613;SDS011;3848;42.016;23.098;2022-09-09T10:38:17;8.13;;;5.30;;
7613;SDS011;3848;42.016;23.098;2022-09-09T10:40:59;7.27;;;5.10;;
7613;SDS011;3848;42.016;23.098;2022-09-09T10:43:39;9.73;;;4.90;;
7613;SDS011;3848;42.016;23.098;2022-09-09T10:46:20;8.90;;;4.83;;
7613;SDS011;3848;42.016;23.098;2022-09-09T10:48:58;8.17;;;5.67;;
7613;SDS011;3848;42.016;23.098;2022-09-09T10:51:36;7.20;;;5.30;;
7613;SDS011;3848;42.016;23.098;2022-09-09T10:54:16;7.13;;;4.77;;
7613;SDS011;3848;42.016;23.098;2022-09-09T10:56:54;12.47;;;5.40;;
7613;SDS011;3848;42.016;23.098;2022-09-09T10:59:26;10.00;;;4.40;;
7613;SDS011;3848;42.016;23.098;2022-09-09T11:02:00;10.23;;;5.03;;
7613;SDS011;3848;42.016;23.098;2022-09-09T11:04:32;6.60;;;5.47;;
7613;SDS011;3848;42.016;23.098;2022-09-09T11:07:06;6.60;;;4.27;;
7613;SDS011;3848;42.016;23.098;2022-09-09T11:09:38;6.30;;;4.57;;
7613;SDS011;3848;42.016;23.098;2022-09-09T11:12:09;10.27;;;5.00;;
7613;SDS011;3848;42.016;23.098;2022-09-09T11:14:42;10.93;;;4.87;;
7613;SDS011;3848;42.016;23.098;2022-09-09T11:17:13;9.10;;;4.63;;
7613;SDS011;3848;42.016;23.098;2022-09-09T11:19:44;9.03;;;5.30;;
7613;SDS011;3848;42.016;23.098;2022-09-09T11:22:16;11.13;;;6.93;;
7613;SDS011;3848;42.016;23.098;2022-09-09T11:24:49;12.53;;;6.17;;
7613;SDS011;3848;42.016;23.098;2022-09-09T11:27:20;9.00;;;4.83;;
7613;SDS011;3848;42.016;23.098;2022-09-09T11:30:02;5.37;;;4.70;;
7613;SDS011;3848;42.016;23.098;2022-09-09T11:32:58;7.47;;;5.30;;
7613;SDS011;3848;42.016;23.098;2022-09-09T11:35:42;8.87;;;5.07;;
7613;SDS011;3848;42.016;23.098;2022-09-09T11:38:19;7.80;;;5.63;;
7613;SDS011;3848;42.016;23.098;2022-09-09T11:40:55;9.33;;;4.77;;
7613;SDS011;3848;42.016;23.098;2022-09-09T11:43:27;10.03;;;5.40;;
7613;SDS011;3848;42.016;23.098;2022-09-09T11:45:58;8.00;;;4.93;;
7613;SDS011;3848;42.016;23.098;2022-09-09T11:48:33;7.53;;;5.13;;
7613;SDS011;3848;42.016;23.098;2022-09-09T11:51:05;9.03;;;4.93;;
7613;SDS011;3848;42.016;23.098;2022-09-09T11:53:34;8.27;;;5.07;;
7613;SDS011;3848;42.016;23.098;2022-09-09T11:56:13;6.57;;;4.80;;
7613;SDS011;3848;42.016;23.098;2022-09-09T11:58:53;6.20;;;5.23;;
7613;SDS011;3848;42.016;23.098;2022-09-09T12:01:27;11.03;;;4.97;;
7613;SDS011;3848;42.016;23.098;2022-09-09T12:04:05;7.33;;;4.40;;
7613;SDS011;3848;42.016;23.098;2022-09-09T12:06:45;8.63;;;4.70;;
7613;SDS011;3848;42.016;23.098;2022-09-09T12:09:18;11.07;;;4.70;;
7613;SDS011;3848;42.016;23.098;2022-09-09T12:11:49;6.50;;;4.87;;
7613;SDS011;3848;42.016;23.098;2022-09-09T12:14:20;10.13;;;5.20;;
7613;SDS011;3848;42.016;23.098;2022-09-09T12:16:48;8.43;;;4.67;;
7613;SDS011;3848;42.016;23.098;2022-09-09T12:19:18;8.43;;;4.87;;
7613;SDS011;3848;42.016;23.098;2022-09-09T12:21:52;9.50;;;5.00;;
7613;SDS011;3848;42.016;23.098;2022-09-09T12:24:28;6.53;;;4.57;;
7613;SDS011;3848;42.016;23.098;2022-09-09T12:27:05;9.53;;;4.47;;
7613;SDS011;3848;42.016;23.098;2022-09-09T12:29:40;11.00;;;4.77;;
7613;SDS011;3848;42.016;23.098;2022-09-09T12:32:15;10.43;;;4.67;;
7613;SDS011;3848;42.016;23.098;2022-09-09T12:34:46;11.10;;;4.73;;
7613;SDS011;3848;42.016;23.098;2022-09-09T12:37:17;7.73;;;5.30;;
7613;SDS011;3848;42.016;23.098;2022-09-09T12:39:51;15.40;;;6.57;;
7613;SDS011;3848;42.016;23.098;2022-09-09T12:42:21;9.93;;;4.70;;
7613;SDS011;3848;42.016;23.098;2022-09-09T12:44:53;9.10;;;6.60;;
7613;SDS011;3848;42.016;23.098;2022-09-09T12:47:21;9.40;;;4.50;;
7613;SDS011;3848;42.016;23.098;2022-09-09T12:49:56;7.70;;;5.13;;
7613;SDS011;3848;42.016;23.098;2022-09-09T12:52:26;8.80;;;4.80;;
7613;SDS011;3848;42.016;23.098;2022-09-09T12:54:57;8.53;;;4.50;;
7613;SDS011;3848;42.016;23.098;2022-09-09T12:57:26;6.87;;;5.23;;
7613;SDS011;3848;42.016;23.098;2022-09-09T13:00:06;6.87;;;4.87;;
7613;SDS011;3848;42.016;23.098;2022-09-09T13:02:45;8.93;;;5.10;;
7613;SDS011;3848;42.016;23.098;2022-09-09T13:05:18;10.30;;;5.47;;
7613;SDS011;3848;42.016;23.098;2022-09-09T13:07:47;7.37;;;5.13;;
7613;SDS011;3848;42.016;23.098;2022-09-09T13:10:15;7.80;;;5.10;;
7613;SDS011;3848;42.016;23.098;2022-09-09T13:12:50;7.00;;;5.03;;
7613;SDS011;3848;42.016;23.098;2022-09-09T13:15:19;8.60;;;5.33;;
7613;SDS011;3848;42.016;23.098;2022-09-09T13:17:50;7.90;;;5.20;;
7613;SDS011;3848;42.016;23.098;2022-09-09T13:20:20;6.73;;;5.10;;
7613;SDS011;3848;42.016;23.098;2022-09-09T13:22:49;10.17;;;5.40;;
7613;SDS011;3848;42.016;23.098;2022-09-09T13:25:18;8.20;;;5.30;;
7613;SDS011;3848;42.016;23.098;2022-09-09T13:27:51;7.43;;;5.20;;
7613;SDS011;3848;42.016;23.098;2022-09-09T13:30:22;12.70;;;6.63;;
7613;SDS011;3848;42.016;23.098;2022-09-09T13:33:02;11.40;;;6.03;;
7613;SDS011;3848;42.016;23.098;2022-09-09T13:35:32;6.57;;;5.83;;
7613;SDS011;3848;42.016;23.098;2022-09-09T13:38:06;6.17;;;5.00;;
7613;SDS011;3848;42.016;23.098;2022-09-09T13:40:34;15.50;;;5.87;;
7613;SDS011;3848;42.016;23.098;2022-09-09T13:43:01;51.27;;;32.37;;
7613;SDS011;3848;42.016;23.098;2022-09-09T13:45:30;15.07;;;11.60;;
7613;SDS011;3848;42.016;23.098;2022-09-09T13:47:59;15.47;;;7.67;;
7613;SDS011;3848;42.016;23.098;2022-09-09T13:50:37;9.20;;;6.30;;
7613;SDS011;3848;42.016;23.098;2022-09-09T13:53:03;10.70;;;6.60;;
7613;SDS011;3848;42.016;23.098;2022-09-09T13:55:30;9.27;;;6.23;;
7613;SDS011;3848;42.016;23.098;2022-09-09T13:57:58;13.13;;;7.43;;
7613;SDS011;3848;42.016;23.098;2022-09-09T14:00:28;6.60;;;5.60;;
7613;SDS011;3848;42.016;23.098;2022-09-09T14:02:56;11.83;;;5.50;;
7613;SDS011;3848;42.016;23.098;2022-09-09T14:05:25;17.20;;;7.67;;
7613;SDS011;3848;42.016;23.098;2022-09-09T14:07:54;16.83;;;6.67;;
7613;SDS011;3848;42.016;23.098;2022-09-09T14:10:20;12.43;;;7.37;;
7613;SDS011;3848;42.016;23.098;2022-09-09T14:12:47;12.97;;;7.20;;
7613;SDS011;3848;42.016;23.098;2022-09-09T14:15:14;13.33;;;6.60;;
7613;SDS011;3848;42.016;23.098;2022-09-09T14:17:41;16.23;;;7.23;;
7613;SDS011;3848;42.016;23.098;2022-09-09T14:20:09;15.87;;;8.63;;
7613;SDS011;3848;42.016;23.098;2022-09-09T14:22:37;11.50;;;8.70;;
7613;SDS011;3848;42.016;23.098;2022-09-09T14:25:07;24.00;;;13.43;;
7613;SDS011;3848;42.016;23.098;2022-09-09T14:27:34;18.83;;;9.57;;
7613;SDS011;3848;42.016;23.098;2022-09-09T14:30:01;15.37;;;8.10;;
7613;SDS011;3848;42.016;23.098;2022-09-09T14:32:29;13.00;;;5.27;;
7613;SDS011;3848;42.016;23.098;2022-09-09T14:34:56;8.30;;;5.67;;
7613;SDS011;3848;42.016;23.098;2022-09-09T14:37:23;12.53;;;5.90;;
7613;SDS011;3848;42.016;23.098;2022-09-09T14:39:50;11.97;;;5.37;;
7613;SDS011;3848;42.016;23.098;2022-09-09T14:42:18;10.50;;;5.13;;
7613;SDS011;3848;42.016;23.098;2022-09-09T14:44:46;8.63;;;5.37;;
7613;SDS011;3848;42.016;23.098;2022-09-09T14:47:14;7.13;;;5.13;;
7613;SDS011;3848;42.016;23.098;2022-09-09T14:49:40;9.33;;;5.17;;
7613;SDS011;3848;42.016;23.098;2022-09-09T14:52:08;8.03;;;5.20;;
7613;SDS011;3848;42.016;23.098;2022-09-09T14:54:35;8.13;;;4.83;;
7613;SDS011;3848;42.016;23.098;2022-09-09T14:57:02;10.83;;;5.10;;
7613;SDS011;3848;42.016;23.098;2022-09-09T14:59:30;7.37;;;4.80;;
7613;SDS011;3848;42.016;23.098;2022-09-09T15:01:57;5.43;;;4.93;;
7613;SDS011;3848;42.016;23.098;2022-09-09T15:04:25;5.60;;;5.10;;
7613;SDS011;3848;42.016;23.098;2022-09-09T15:06:52;8.80;;;5.57;;
7613;SDS011;3848;42.016;23.098;2022-09-09T15:09:20;10.00;;;5.40;;
7613;SDS011;3848;42.016;23.098;2022-09-09T15:11:47;8.97;;;5.43;;
7613;SDS011;3848;42.016;23.098;2022-09-09T15:14:15;12.23;;;5.47;;
7613;SDS011;3848;42.016;23.098;2022-09-09T15:16:43;11.63;;;5.97;;
7613;SDS011;3848;42.016;23.098;2022-09-09T15:19:10;10.57;;;5.90;;